Old London, Texas
Current Conditions -  °F | °C
As of 4:35 PM on Friday 19 Dec 2014 (Local Time) from KRFI Reporting Station
Overcast Overcast  
Wind Chill:   Ceiling: 400
Heat Index:   Visibility: 10mi
Dew Point:   Wind: 8mph
Humidity: 97%   Direction: 40°NE
Pressure: 30.14"   Gusts: NA
Location:  32.2538°N, 94.9427°W
Report Text: KRFI 192235Z AUTO 04007KT 10SM OVC004 09/08 A3014 RMK AO2 T00880083
Loading
Personal Weather Stations






























Interactive Weather Map New forecast layout! Learn more

10-Day Weather Forecast

Advertisements
Track Severe Weather on mobile